Time;durP1;ratioP1;P1;durP2;ratioP2;P2;SDS_P1;SDS_P2;PMS_P1;PMS_P2;Temp;Humidity;BMP_temperature;BMP_pressure;BME280_temperature;BME280_humidity;BME280_pressure;Samples;Min_cycle;Max_cycle;Signal;HPM_P1;HPM_P2
2022/01/18 05:00:28;;;;;;;2.38;1.73;;;;;;;-2.14;100.00;95415.63;6042805;23;20108;-75
2022/01/18 05:02:54;;;;;;;4.32;1.83;;;;;;;-2.14;100.00;95420.69;4997751;28;20129;-76
2022/01/18 05:05:25;;;;;;;2.83;2.42;;;;;;;-2.10;100.00;95428.97;5000364;28;20125;-75
2022/01/18 05:07:59;;;;;;;8.05;5.28;;;;;;;-2.09;100.00;95438.22;4986510;28;20030;-74
2022/01/18 05:10:27;;;;;;;15.20;6.63;;;;;;;-2.08;100.00;95437.28;4987078;28;20035;-74
2022/01/18 05:12:56;;;;;;;6.05;4.53;;;;;;;-2.11;100.00;95428.13;5001008;28;20035;-74
2022/01/18 05:23:06;;;;;;;5.22;3.10;;;;;;;-2.27;100.00;95452.69;4987361;28;20041;-75
2022/01/18 05:25:35;;;;;;;4.90;3.53;;;;;;;-2.05;100.00;95462.50;4989649;28;20030;-75
2022/01/18 05:28:03;;;;;;;5.18;3.63;;;;;;;-2.27;100.00;95472.97;4982817;28;20037;-76
2022/01/18 05:30:29;;;;;;;5.03;4.18;;;;;;;-2.31;100.00;95471.50;4962813;28;20803;-76
2022/01/18 05:32:55;;;;;;;6.30;4.60;;;;;;;-2.28;100.00;95494.19;4986128;28;20026;-75
2022/01/18 05:35:21;;;;;;;6.00;4.70;;;;;;;-2.21;100.00;95505.59;4997871;28;20061;-75
2022/01/18 05:37:47;;;;;;;4.38;3.97;;;;;;;-2.24;100.00;95498.16;4986148;28;20034;-76
2022/01/18 05:40:14;;;;;;;5.22;3.53;;;;;;;-2.13;100.00;95506.88;4981586;28;20122;-75
2022/01/18 05:42:39;;;;;;;2.60;2.10;;;;;;;-2.24;100.00;95513.38;4997384;28;20033;-76
2022/01/18 05:45:06;;;;;;;8.02;2.90;;;;;;;-2.17;100.00;95510.44;4987708;28;20034;-75
2022/01/18 05:47:33;;;;;;;4.45;3.30;;;;;;;-2.14;100.00;95517.91;4985604;28;20059;-75
2022/01/18 05:49:59;;;;;;;19.45;9.18;;;;;;;-2.14;100.00;95519.59;4985701;28;20117;-76
2022/01/18 05:52:24;;;;;;;5.85;4.22;;;;;;;-2.21;100.00;95513.22;5002040;28;20040;-75
2022/01/18 05:54:50;;;;;;;3.83;3.30;;;;;;;-2.23;100.00;95512.50;4988960;28;20487;-75
2022/01/18 05:57:15;;;;;;;5.40;3.30;;;;;;;-2.23;100.00;95502.34;4986581;28;20030;-75
2022/01/18 05:59:45;;;;;;;3.63;3.05;;;;;;;-2.18;100.00;95505.44;4986073;28;20034;-75
2022/01/18 06:02:18;;;;;;;2.50;2.30;;;;;;;-2.17;100.00;95525.66;4971181;28;20133;-74
2022/01/18 06:07:29;;;;;;;6.00;3.30;;;;;;;-2.22;100.00;95521.75;4999431;28;20442;-75
2022/01/18 06:09:56;;;;;;;6.15;4.05;;;;;;;-2.27;100.00;95532.13;5004727;28;20035;-75
2022/01/18 06:12:23;;;;;;;3.72;3.42;;;;;;;-1.93;100.00;95523.56;5005179;28;20026;-74
2022/01/18 06:14:48;;;;;;;4.40;2.72;;;;;;;-1.93;100.00;95528.63;4987643;28;20049;-75
2022/01/18 06:17:14;;;;;;;5.10;2.80;;;;;;;-1.64;100.00;95524.53;5005284;28;20022;-74
2022/01/18 06:19:39;;;;;;;3.33;3.03;;;;;;;-1.60;100.00;95539.50;4982142;28;20039;-75
2022/01/18 06:22:04;;;;;;;5.93;3.30;;;;;;;-1.50;100.00;95542.34;4968825;28;20022;-75
2022/01/18 06:24:30;;;;;;;6.30;4.65;;;;;;;-1.33;99.96;95551.59;4988017;28;20038;-75
2022/01/18 06:26:55;;;;;;;4.80;3.65;;;;;;;-1.21;98.83;95564.44;4970852;28;20068;-74
2022/01/18 06:29:22;;;;;;;4.03;3.40;;;;;;;-0.98;98.51;95552.97;4987192;28;20019;-72
2022/01/18 06:31:48;;;;;;;5.85;3.10;;;;;;;-0.30;95.27;95559.19;5003109;28;20499;-74
2022/01/18 06:34:14;;;;;;;4.22;3.65;;;;;;;-0.57;94.96;95550.59;4987445;28;20044;-74
2022/01/18 06:36:41;;;;;;;5.15;3.08;;;;;;;-0.15;93.91;95552.34;4986039;28;20027;-74
2022/01/18 06:39:06;;;;;;;3.45;2.92;;;;;;;-0.37;92.70;95552.00;4973516;28;20628;-75
2022/01/18 06:41:32;;;;;;;2.78;2.35;;;;;;;-0.20;93.98;95546.75;5005506;28;20029;-74
2022/01/18 06:43:57;;;;;;;3.05;2.20;;;;;;;-0.09;92.92;95557.91;4987321;28;20518;-74
2022/01/18 06:46:23;;;;;;;3.45;2.13;;;;;;;0.26;91.67;95545.56;5004541;28;20035;-74
2022/01/18 06:48:48;;;;;;;3.08;2.78;;;;;;;-0.25;93.23;95546.19;4996846;28;20038;-74
2022/01/18 06:51:14;;;;;;;3.00;2.60;;;;;;;-0.13;92.86;95556.44;4988090;28;20549;-75
2022/01/18 06:53:45;;;;;;;5.25;2.88;;;;;;;1.50;88.06;95554.63;4989143;28;20062;-74
2022/01/18 06:56:12;;;;;;;3.22;2.92;;;;;;;2.07;82.06;95560.94;5002944;28;20438;-74
2022/01/18 06:58:38;;;;;;;3.95;3.17;;;;;;;3.41;76.18;95566.75;4989326;28;20022;-75
2022/01/18 07:01:03;;;;;;;3.20;2.22;;;;;;;3.01;73.42;95572.22;4998293;28;20089;-74
2022/01/18 07:03:29;;;;;;;3.25;2.10;;;;;;;2.47;75.44;95576.09;4987708;28;20058;-75
2022/01/18 07:05:54;;;;;;;2.35;1.83;;;;;;;1.43;79.88;95577.19;4986193;28;20049;-73
2022/01/18 07:08:20;;;;;;;2.78;2.10;;;;;;;1.53;81.67;95575.66;4986394;28;20522;-73
2022/01/18 07:10:45;;;;;;;3.33;2.58;;;;;;;1.78;81.41;95587.59;4971015;28;20033;-74
2022/01/18 07:13:13;;;;;;;2.78;2.20;;;;;;;2.43;78.62;95595.94;4988449;28;20098;-74
2022/01/18 07:15:39;;;;;;;4.75;2.50;;;;;;;2.30;78.71;95602.81;4972751;28;20035;-74
2022/01/18 07:18:05;;;;;;;2.42;2.15;;;;;;;3.05;76.16;95601.75;4985667;28;20113;-74
2022/01/18 07:20:31;;;;;;;3.40;2.45;;;;;;;3.13;80.16;95616.56;4985100;28;20061;-73
2022/01/18 07:22:57;;;;;;;2.92;2.42;;;;;;;3.82;73.87;95605.47;4986514;28;20022;-73
2022/01/18 07:25:25;;;;;;;3.08;2.55;;;;;;;3.69;75.90;95607.34;4971839;28;20030;-73
2022/01/18 07:27:50;;;;;;;3.42;2.80;;;;;;;3.84;73.08;95610.50;4985345;28;20065;-72
2022/01/18 07:30:16;;;;;;;3.40;2.22;;;;;;;4.24;70.96;95612.53;4987264;28;20038;-72
2022/01/18 07:32:41;;;;;;;2.60;2.40;;;;;;;3.07;76.64;95612.69;4988063;28;20191;-72
2022/01/18 07:35:08;;;;;;;4.18;2.47;;;;;;;4.43;72.07;95609.38;4986844;28;20058;-73
2022/01/18 07:37:34;;;;;;;3.25;2.42;;;;;;;3.47;72.87;95620.88;5000731;28;20030;-72
2022/01/18 07:39:59;;;;;;;2.65;2.38;;;;;;;3.96;72.56;95618.09;4985370;28;20060;-72
2022/01/18 07:42:25;;;;;;;3.25;2.45;;;;;;;4.05;69.75;95609.72;4979936;28;20031;-72
2022/01/18 07:44:51;;;;;;;6.47;2.95;;;;;;;4.49;69.65;95615.81;5003062;28;20492;-72
2022/01/18 07:47:17;;;;;;;3.05;2.65;;;;;;;5.76;64.18;95626.16;5001711;28;20419;-72
2022/01/18 07:49:42;;;;;;;2.42;2.13;;;;;;;5.44;61.19;95621.06;4987424;28;20030;-74
2022/01/18 07:52:07;;;;;;;3.22;2.35;;;;;;;6.13;58.81;95626.59;4986455;28;20054;-74
2022/01/18 07:54:33;;;;;;;3.10;2.33;;;;;;;5.70;62.00;95639.50;4988034;28;20041;-72
2022/01/18 07:56:58;;;;;;;2.40;2.17;;;;;;;6.19;57.92;95631.22;4986149;28;20031;-74
2022/01/18 07:59:27;;;;;;;2.70;1.85;;;;;;;6.72;58.14;95640.38;4986880;28;20035;-72
2022/01/18 08:01:54;;;;;;;3.10;2.22;;;;;;;8.23;51.27;95631.25;4988027;28;20058;-74
2022/01/18 08:04:20;;;;;;;4.07;2.50;;;;;;;8.41;50.63;95616.69;4991817;28;20589;-73
2022/01/18 08:06:45;;;;;;;5.97;2.40;;;;;;;6.52;54.85;95625.81;4990530;28;20029;-73
2022/01/18 08:09:11;;;;;;;3.55;2.55;;;;;;;6.73;53.99;95634.31;4994650;28;20066;-73
2022/01/18 08:11:36;;;;;;;2.75;2.22;;;;;;;7.66;50.75;95644.22;4985337;28;20513;-72
2022/01/18 08:14:03;;;;;;;3.03;2.28;;;;;;;9.84;45.76;95632.31;4985435;28;20022;-72
2022/01/18 08:18:55;;;;;;;3.00;2.50;;;;;;;9.42;47.34;95647.59;4986086;28;20406;-74
2022/01/18 08:21:21;;;;;;;2.72;1.98;;;;;;;9.95;45.84;95642.41;4977302;28;20018;-74
2022/01/18 08:23:46;;;;;;;4.60;2.50;;;;;;;8.97;47.35;95636.44;4983552;28;20076;-73
2022/01/18 08:26:12;;;;;;;2.40;2.15;;;;;;;8.37;48.80;95637.78;4983215;28;20058;-74
2022/01/18 08:28:37;;;;;;;2.38;1.90;;;;;;;7.63;51.10;95634.19;4982524;28;20030;-74
2022/01/18 08:31:04;;;;;;;4.03;2.38;;;;;;;8.31;48.02;95634.00;4985038;28;20033;-73
2022/01/18 08:33:33;;;;;;;2.72;1.92;;;;;;;8.70;47.98;95624.31;4986908;28;20406;-73
2022/01/18 08:35:59;;;;;;;;;;;;;;;8.56;48.51;95624.81;4983528;28;20492;-73
2022/01/18 08:38:26;;;;;;;2.70;2.42;;;;;;;7.87;50.22;95630.22;4986431;28;20008;-74
2022/01/18 08:40:51;;;;;;;2.60;2.28;;;;;;;9.73;45.95;95632.53;4979203;28;20062;-73
2022/01/18 08:43:17;;;;;;;3.53;1.92;;;;;;;8.06;49.79;95629.38;4979933;28;20068;-73
2022/01/18 08:45:42;;;;;;;2.72;2.40;;;;;;;7.55;52.55;95636.59;4987157;28;20034;-72
2022/01/18 08:48:08;;;;;;;3.97;2.33;;;;;;;9.72;47.52;95651.63;4981019;28;20076;-73
2022/01/18 08:50:33;;;;;;;2.78;2.33;;;;;;;8.54;49.79;95657.66;4983169;28;20026;-73
2022/01/18 08:52:59;;;;;;;2.60;2.22;;;;;;;9.13;46.69;95666.81;4968797;28;20018;-73
2022/01/18 08:55:24;;;;;;;3.25;2.25;;;;;;;9.71;46.74;95667.25;4970352;28;20133;-73
2022/01/18 08:57:50;;;;;;;2.13;1.90;;;;;;;10.05;45.69;95663.03;4969154;28;20033;-73
2022/01/18 09:00:17;;;;;;;2.55;2.17;;;;;;;9.85;45.95;95666.75;4984954;28;20061;-72
2022/01/18 09:02:42;;;;;;;2.25;2.05;;;;;;;9.04;47.05;95671.09;4980997;28;20475;-72
2022/01/18 09:05:08;;;;;;;2.38;1.83;;;;;;;9.00;46.49;95677.50;4985060;28;20488;-73
2022/01/18 09:07:36;;;;;;;2.53;1.70;;;;;;;5.65;53.25;95686.13;4968775;28;20045;-72
2022/01/18 09:10:06;;;;;;;3.03;1.88;;;;;;;6.64;54.34;95683.97;4982352;28;20516;-73
2022/01/18 09:12:32;;;;;;;3.28;2.00;;;;;;;5.45;56.48;95686.09;4974621;28;20727;-72
2022/01/18 09:15:00;;;;;;;2.20;1.92;;;;;;;8.84;46.85;95680.69;4983145;28;20065;-73
2022/01/18 09:17:28;;;;;;;4.03;2.00;;;;;;;9.45;46.62;95680.91;4985232;28;20019;-73
2022/01/18 09:19:54;;;;;;;1.88;1.60;;;;;;;9.42;46.09;95676.03;4984557;28;20117;-72
2022/01/18 09:22:20;;;;;;;2.10;1.52;;;;;;;10.48;43.42;95670.00;5001591;28;20031;-72
2022/01/18 09:24:45;;;;;;;2.40;2.17;;;;;;;9.48;45.15;95667.69;4985421;28;20045;-73
2022/01/18 09:27:10;;;;;;;2.63;2.28;;;;;;;10.87;43.86;95663.44;4986107;28;20015;-73
2022/01/18 09:29:36;;;;;;;2.03;1.60;;;;;;;10.76;42.71;95661.09;4986271;28;20040;-72
2022/01/18 09:32:03;;;;;;;2.22;1.60;;;;;;;9.47;45.55;95662.69;4989023;28;20396;-73
2022/01/18 09:34:29;;;;;;;2.05;1.42;;;;;;;9.27;45.33;95663.75;4989697;28;20142;-73
2022/01/18 09:36:54;;;;;;;2.90;1.58;;;;;;;10.60;43.28;95655.84;4963415;28;20480;-74
2022/01/18 09:39:20;;;;;;;1.98;1.75;;;;;;;9.64;44.45;95655.88;4990073;28;20466;-74
2022/01/18 09:41:50;;;;;;;2.55;2.15;;;;;;;11.07;43.27;95653.66;5003229;28;20116;-75
2022/01/18 09:44:16;;;;;;;3.30;2.20;;;;;;;10.14;43.43;95653.59;4998243;28;20121;-75
2022/01/18 09:46:41;;;;;;;3.15;2.30;;;;;;;10.07;43.51;95646.41;5001271;28;20043;-75
2022/01/18 09:49:07;;;;;;;3.72;2.35;;;;;;;8.84;45.56;95634.19;4980897;28;20030;-74
2022/01/18 09:51:32;;;;;;;2.60;2.33;;;;;;;10.08;45.42;95629.13;5004014;28;20491;-75
2022/01/18 09:53:58;;;;;;;3.00;1.83;;;;;;;9.68;44.62;95627.00;4989950;28;20053;-74
2022/01/18 09:56:24;;;;;;;2.97;2.50;;;;;;;8.91;46.23;95643.00;4988770;28;20038;-75
2022/01/18 09:58:50;;;;;;;1.92;1.73;;;;;;;11.16;43.33;95628.56;4985630;28;20138;-74
2022/01/18 10:01:15;;;;;;;1.98;1.85;;;;;;;10.53;42.16;95628.94;5005887;28;20070;-75
2022/01/18 10:03:43;;;;;;;2.60;2.00;;;;;;;10.61;43.51;95636.75;4989707;28;20114;-75
2022/01/18 10:06:10;;;;;;;2.45;1.98;;;;;;;9.29;44.64;95629.03;4984348;28;20030;-75
2022/01/18 10:08:38;;;;;;;3.47;1.67;;;;;;;10.66;43.32;95629.31;4990226;28;20030;-75
2022/01/18 10:11:22;;;;;;;2.85;2.00;;;;;;;9.61;43.85;95631.13;4981309;28;20035;-76
2022/01/18 10:13:49;;;;;;;2.03;1.75;;;;;;;9.84;42.80;95631.50;4973481;28;20173;-75
2022/01/18 10:16:21;;;;;;;2.08;1.80;;;;;;;10.07;44.09;95624.91;5004703;28;20507;-75
2022/01/18 10:19:03;;;;;;;5.35;1.88;;;;;;;8.77;46.53;95632.31;4959201;28;20047;-76
2022/01/18 10:21:33;;;;;;;1.95;1.73;;;;;;;9.44;46.83;95631.94;4971050;28;20035;-76
2022/01/18 10:24:20;;;;;;;1.90;1.70;;;;;;;9.89;44.31;95629.25;4973016;28;20495;-75
2022/01/18 10:26:47;;;;;;;2.97;2.17;;;;;;;10.33;45.40;95624.94;4991340;28;20511;-76
2022/01/18 10:29:13;;;;;;;3.20;2.08;;;;;;;8.40;46.85;95627.16;4985501;28;20030;-75
2022/01/18 10:34:30;;;;;;;2.97;2.28;;;;;;;9.07;46.58;95623.47;5004605;28;20026;-75
2022/01/18 10:37:01;;;;;;;2.92;2.50;;;;;;;8.92;45.86;95616.22;4970093;28;20053;-75
2022/01/18 10:39:35;;;;;;;2.53;1.83;;;;;;;5.93;53.34;95623.09;5004995;28;20037;-75
2022/01/18 10:42:13;;;;;;;2.72;1.80;;;;;;;4.65;63.57;95635.03;4988026;28;20030;-75
2022/01/18 10:44:39;;;;;;;3.13;2.10;;;;;;;4.39;62.92;95637.94;4989465;28;20037;-74
2022/01/18 10:47:04;;;;;;;4.47;2.25;;;;;;;3.99;63.87;95640.09;4969456;28;20042;-74
2022/01/18 10:49:46;;;;;;;4.00;2.25;;;;;;;4.21;63.75;95637.56;4984722;28;20030;-73
2022/01/18 10:52:18;;;;;;;3.22;2.17;;;;;;;3.34;66.18;95644.94;4989431;28;20034;-75
2022/01/18 10:54:51;;;;;;;4.38;2.50;;;;;;;3.75;67.19;95634.25;4982603;28;20045;-74
2022/01/18 10:57:19;;;;;;;2.75;2.05;;;;;;;3.98;65.81;95631.59;4985105;28;20046;-75
2022/01/18 10:59:45;;;;;;;3.58;2.28;;;;;;;3.42;67.43;95634.94;4986116;28;20457;-75
2022/01/18 11:02:18;;;;;;;5.13;2.05;;;;;;;3.37;66.05;95634.47;4980710;28;20062;-73
2022/01/18 11:04:49;;;;;;;2.63;2.22;;;;;;;3.50;64.91;95630.88;4988799;28;20030;-74
2022/01/18 11:07:20;;;;;;;2.60;1.92;;;;;;;3.54;65.82;95640.00;4983427;28;20412;-73
2022/01/18 11:09:46;;;;;;;2.80;2.03;;;;;;;3.41;66.62;95630.75;4981630;28;20422;-74
2022/01/18 11:12:12;;;;;;;5.50;2.70;;;;;;;3.32;69.16;95633.97;4984227;28;20146;-74
2022/01/18 11:14:46;;;;;;;4.10;2.88;;;;;;;3.12;68.86;95632.81;4997783;28;20496;-73
2022/01/18 11:17:21;;;;;;;6.97;2.78;;;;;;;3.44;68.92;95630.50;4995425;28;20574;-73
2022/01/18 11:19:48;;;;;;;3.58;2.33;;;;;;;3.05;69.09;95635.00;4990723;28;20022;-74
2022/01/18 11:22:14;;;;;;;6.38;2.85;;;;;;;2.91;68.21;95624.94;5003560;28;20029;-73
2022/01/18 11:24:43;;;;;;;3.70;2.45;;;;;;;3.39;67.92;95625.75;4985920;28;20034;-74
2022/01/18 11:27:13;;;;;;;3.55;2.45;;;;;;;3.33;68.51;95631.31;4986892;28;20113;-74
2022/01/18 11:29:42;;;;;;;4.82;3.20;;;;;;;3.54;67.38;95634.03;4963835;28;20529;-74
2022/01/18 11:32:09;;;;;;;6.07;2.67;;;;;;;3.33;67.59;95635.59;4981943;28;20038;-73
2022/01/18 11:34:55;;;;;;;4.00;2.88;;;;;;;3.06;67.86;95635.81;4967530;28;20035;-73
2022/01/18 11:37:28;;;;;;;7.90;2.55;;;;;;;2.72;71.15;95637.38;4967369;28;20042;-73
2022/01/18 11:40:02;;;;;;;4.93;2.58;;;;;;;3.01;71.66;95645.56;4992957;28;20021;-74
2022/01/18 11:42:44;;;;;;;3.30;2.30;;;;;;;2.80;70.33;95649.59;4989281;28;20026;-73
2022/01/18 11:45:25;;;;;;;4.57;2.33;;;;;;;2.55;69.57;95640.25;4983776;28;20042;-73
2022/01/18 11:48:07;;;;;;;4.32;2.25;;;;;;;2.57;69.97;95649.44;4987225;28;20641;-73
2022/01/18 11:50:41;;;;;;;3.85;2.38;;;;;;;2.76;69.05;95648.22;4983018;28;20117;-73
2022/01/18 11:56:15;;;;;;;4.30;2.10;;;;;;;2.70;69.97;95646.06;4990961;28;20038;-73
2022/01/18 11:58:43;;;;;;;3.92;2.30;;;;;;;2.75;69.77;95641.44;4991854;28;20018;-72
2022/01/18 12:01:09;;;;;;;4.25;2.17;;;;;;;2.74;70.18;95632.13;4983563;28;20133;-73
2022/01/18 12:03:44;;;;;;;5.10;2.63;;;;;;;2.72;69.93;95626.31;4984012;28;20529;-73
2022/01/18 12:06:10;;;;;;;4.88;2.67;;;;;;;2.33;69.71;95625.59;4998404;28;20022;-74
2022/01/18 12:08:36;;;;;;;5.00;2.67;;;;;;;2.60;70.13;95633.91;4974862;28;20037;-73
2022/01/18 12:11:04;;;;;;;4.72;1.83;;;;;;;2.50;67.49;95616.78;4971223;28;20465;-72
2022/01/18 12:13:41;;;;;;;2.20;1.58;;;;;;;2.62;67.41;95621.84;4981000;28;20041;-72
2022/01/18 12:16:17;;;;;;;3.60;2.15;;;;;;;2.63;67.63;95613.25;4997251;28;20030;-73
2022/01/18 12:19:04;;;;;;;5.38;2.45;;;;;;;2.56;69.70;95618.91;4987689;28;20561;-72
2022/01/18 12:21:32;;;;;;;2.70;1.70;;;;;;;2.40;69.12;95620.88;4981574;28;20488;-72
2022/01/18 12:24:13;;;;;;;6.40;2.33;;;;;;;2.28;66.32;95608.94;4976447;28;20027;-73
2022/01/18 12:26:42;;;;;;;5.68;2.72;;;;;;;2.45;67.66;95611.97;4991248;28;20034;-72
2022/01/18 12:29:25;;;;;;;4.27;2.13;;;;;;;2.25;68.87;95609.94;4984104;28;20141;-73
2022/01/18 12:34:50;;;;;;;2.58;1.67;;;;;;;2.06;67.98;95612.09;4981926;28;20030;-74
2022/01/18 12:37:21;;;;;;;2.83;1.42;;;;;;;2.31;68.03;95614.63;4952530;28;20030;-72
2022/01/18 12:39:49;;;;;;;3.45;1.98;;;;;;;2.08;67.69;95615.38;4979833;28;20030;-73
2022/01/18 12:45:22;;;;;;;4.15;2.17;;;;;;;2.25;69.39;95614.25;4981014;28;20066;-73
2022/01/18 12:48:00;;;;;;;4.93;1.65;;;;;;;2.15;67.03;95608.97;4974242;28;20034;-73
2022/01/18 12:50:25;;;;;;;5.53;2.05;;;;;;;1.90;67.75;95601.28;4975099;28;20022;-73
2022/01/18 12:52:57;;;;;;;3.08;2.05;;;;;;;1.92;69.00;95604.56;4985132;28;20042;-74
2022/01/18 12:55:32;;;;;;;8.68;2.30;;;;;;;1.99;68.89;95604.03;4979930;28;20097;-74
2022/01/18 12:58:17;;;;;;;3.60;1.77;;;;;;;1.97;69.25;95616.09;4984243;28;20018;-74
2022/01/18 13:00:51;;;;;;;4.28;2.30;;;;;;;1.80;68.85;95628.38;4977233;28;20026;-74
2022/01/18 13:03:29;;;;;;;6.78;2.42;;;;;;;1.90;69.55;95626.81;4984510;28;20031;-74
2022/01/18 13:06:00;;;;;;;7.32;2.88;;;;;;;1.72;68.54;95630.59;4970619;28;20193;-74
2022/01/18 13:08:39;;;;;;;5.00;1.90;;;;;;;1.73;69.02;95624.56;4979235;28;20149;-74
2022/01/18 13:11:04;;;;;;;4.65;1.80;;;;;;;1.63;68.75;95644.78;4988336;28;20447;-76
2022/01/18 13:13:34;;;;;;;7.97;2.00;;;;;;;1.74;69.59;95652.53;4981100;28;20033;-75
2022/01/18 13:26:53;;;;;;;4.10;1.98;;;;;;;1.57;68.05;95655.38;4997769;28;20049;-74
2022/01/18 13:29:21;;;;;;;3.05;1.80;;;;;;;1.55;68.43;95647.00;4982689;28;20460;-75
2022/01/18 13:32:00;;;;;;;2.22;1.65;;;;;;;1.48;67.86;95661.88;4976462;28;20518;-75
2022/01/18 13:34:31;;;;;;;4.22;2.00;;;;;;;1.38;67.48;95648.06;4955671;28;20050;-75
2022/01/18 13:36:57;;;;;;;5.45;2.03;;;;;;;1.29;68.69;95656.31;4981173;28;20129;-75
2022/01/18 13:39:26;;;;;;;4.32;2.55;;;;;;;1.36;68.85;95661.84;4974422;28;20157;-75
2022/01/18 13:41:52;;;;;;;4.53;1.92;;;;;;;1.49;69.74;95666.06;4991439;28;20112;-75
2022/01/18 13:44:18;;;;;;;4.75;1.48;;;;;;;1.46;70.66;95650.97;4980064;28;20026;-75
2022/01/18 13:46:44;;;;;;;5.65;2.22;;;;;;;1.28;69.59;95659.81;4993339;28;20023;-74
2022/01/18 13:49:09;;;;;;;8.05;2.47;;;;;;;1.36;69.72;95657.56;4956686;28;20507;-74
2022/01/18 13:51:35;;;;;;;5.90;2.60;;;;;;;1.35;69.67;95658.47;4973591;28;20550;-74
2022/01/18 13:54:07;;;;;;;4.75;1.98;;;;;;;1.14;68.76;95654.75;5000875;28;20150;-75
2022/01/18 13:56:33;;;;;;;3.20;2.05;;;;;;;1.13;70.01;95662.47;4997151;28;20040;-74
2022/01/18 13:59:00;;;;;;;4.57;2.13;;;;;;;1.07;69.88;95663.69;5001596;28;20030;-74
2022/01/18 14:01:28;;;;;;;3.00;1.75;;;;;;;1.12;70.60;95671.88;4999515;28;20053;-75
2022/01/18 14:03:54;;;;;;;5.95;2.30;;;;;;;0.87;71.58;95647.06;4967841;28;20423;-75
2022/01/18 14:06:22;;;;;;;4.65;1.95;;;;;;;0.87;72.55;95666.66;4985018;28;20034;-75
2022/01/18 14:08:52;;;;;;;3.78;2.17;;;;;;;0.86;73.28;95668.41;4975729;28;20042;-75
2022/01/18 14:11:22;;;;;;;5.32;2.40;;;;;;;0.82;73.09;95674.59;4989253;28;20041;-74
2022/01/18 14:13:53;;;;;;;3.58;2.03;;;;;;;0.71;73.60;95671.88;4998948;28;20544;-75
2022/01/18 14:16:25;;;;;;;;;;;;;;;0.68;72.81;95677.16;4965324;28;20113;-75
2022/01/18 14:18:51;;;;;;;3.25;2.50;;;;;;;0.78;72.81;95665.47;4969811;28;19917;-75
2022/01/18 14:21:37;;;;;;;7.20;3.15;;;;;;;0.64;73.46;95660.44;4987558;28;20466;-75
2022/01/18 14:24:16;;;;;;;3.80;2.30;;;;;;;0.56;74.01;95657.50;4989486;28;20026;-75
2022/01/18 14:26:57;;;;;;;3.67;2.23;;;;;;;0.50;75.19;95666.34;4974538;28;20026;-75
2022/01/18 14:29:42;;;;;;;5.97;2.33;;;;;;;0.51;74.62;95665.44;4989295;28;20034;-75
2022/01/18 14:32:12;;;;;;;3.40;2.00;;;;;;;0.45;75.66;95652.28;4986562;28;20041;-75
2022/01/18 14:34:42;;;;;;;;;;;;;;;0.37;75.93;95662.91;4994880;28;20113;-74
2022/01/18 14:37:09;;;;;;;4.03;2.50;;;;;;;0.36;76.24;95655.34;5003786;28;19926;-74
2022/01/18 14:40:00;;;;;;;6.88;2.72;;;;;;;0.30;76.56;95655.72;4969981;28;20034;-74
2022/01/18 14:42:30;;;;;;;4.03;2.00;;;;;;;0.19;77.29;95664.00;4973630;28;20030;-75
2022/01/18 14:47:27;;;;;;;6.97;2.20;;;;;;;0.21;78.97;95669.00;4995241;28;20038;-74
2022/01/18 14:50:01;;;;;;;3.65;2.03;;;;;;;0.08;78.28;95656.16;4994499;28;20510;-74
2022/01/18 14:52:28;;;;;;;7.72;2.60;;;;;;;0.10;78.91;95659.44;4987158;28;20030;-74
2022/01/18 14:54:53;;;;;;;6.82;2.70;;;;;;;0.00;79.29;95660.91;4994095;28;20109;-77
2022/01/18 14:57:20;;;;;;;3.85;2.50;;;;;;;-0.02;79.38;95665.25;4990950;28;20136;-74
2022/01/18 14:59:45;;;;;;;5.55;2.30;;;;;;;-0.03;79.98;95673.78;4991850;28;20022;-75
2022/01/18 15:02:11;;;;;;;5.47;3.20;;;;;;;-0.14;80.84;95671.88;4979572;28;20049;-76
2022/01/18 15:04:38;;;;;;;4.53;2.50;;;;;;;-0.18;82.78;95679.75;4992061;28;20042;-75
2022/01/18 15:07:04;;;;;;;4.53;2.63;;;;;;;-0.27;84.23;95677.75;4997498;28;20113;-75
2022/01/18 15:09:29;;;;;;;8.63;3.08;;;;;;;-0.20;83.79;95679.88;4972169;28;20030;-75
2022/01/18 15:11:57;;;;;;;9.73;3.38;;;;;;;-0.23;83.61;95679.22;4990686;28;20396;-76
2022/01/18 15:14:22;;;;;;;6.78;3.38;;;;;;;-0.42;83.80;95666.75;4975630;28;20026;-76
2022/01/18 15:16:52;;;;;;;7.13;2.83;;;;;;;-0.27;84.49;95682.84;4997444;28;20514;-75
2022/01/18 15:19:21;;;;;;;5.95;3.47;;;;;;;-0.45;84.79;95679.59;4975283;28;20483;-75
2022/01/18 15:21:46;;;;;;;5.68;3.30;;;;;;;-0.58;86.55;95674.38;4988489;28;20174;-75
2022/01/18 15:24:12;;;;;;;6.35;3.53;;;;;;;-0.90;86.71;95623.72;4986855;28;20120;-75
2022/01/18 15:26:38;;;;;;;6.63;3.03;;;;;;;-0.76;88.06;95641.56;4986742;28;20518;-75
2022/01/18 15:29:04;;;;;;;4.90;3.13;;;;;;;-0.70;88.69;95689.50;4988251;28;20041;-75
2022/01/18 15:31:31;;;;;;;5.40;2.70;;;;;;;-0.69;88.77;95689.44;4966843;28;20508;-74
2022/01/18 15:33:57;;;;;;;7.68;3.67;;;;;;;-0.70;89.33;95697.97;4974504;28;20033;-74
2022/01/18 15:36:22;;;;;;;6.10;3.35;;;;;;;-0.75;89.79;95702.50;4994571;28;20109;-72
2022/01/18 15:38:48;;;;;;;8.27;4.13;;;;;;;-0.77;90.06;95701.72;4996143;28;20072;-71
2022/01/18 15:41:13;;;;;;;8.10;4.35;;;;;;;-0.78;90.31;95715.38;4986119;28;20496;-72
2022/01/18 15:43:40;;;;;;;7.07;3.97;;;;;;;-0.81;89.88;95727.44;4993438;28;20073;-74
2022/01/18 15:46:06;;;;;;;8.73;4.60;;;;;;;-0.80;89.77;95729.88;4957477;28;20042;-74
2022/01/18 15:48:32;;;;;;;8.75;4.60;;;;;;;-0.85;89.58;95736.09;4982083;28;20483;-74
2022/01/18 15:50:58;;;;;;;7.93;5.50;;;;;;;-0.81;89.38;95735.88;4984502;28;20090;-74
2022/01/18 15:53:23;;;;;;;8.65;4.38;;;;;;;-0.93;88.94;95749.22;4981532;28;20034;-74
2022/01/18 15:55:49;;;;;;;7.20;4.63;;;;;;;-0.81;87.96;95748.59;4990059;28;20034;-74
2022/01/18 15:58:15;;;;;;;7.10;5.00;;;;;;;-0.77;87.87;95747.50;4985755;28;20027;-74
2022/01/18 16:00:43;;;;;;;12.15;5.10;;;;;;;-0.88;87.94;95762.50;4954315;28;20104;-74
2022/01/18 16:03:12;;;;;;;6.93;4.55;;;;;;;-0.90;88.08;95755.88;4969844;28;20124;-73
2022/01/18 16:05:37;;;;;;;10.63;4.43;;;;;;;-1.04;87.81;95748.97;4986867;28;20171;-73
2022/01/18 16:08:06;;;;;;;6.43;5.25;;;;;;;-0.95;87.46;95752.75;4985911;28;20121;-73
2022/01/18 16:10:33;;;;;;;12.55;5.45;;;;;;;-0.95;87.38;95753.56;4968925;28;20041;-73
2022/01/18 16:12:58;;;;;;;7.68;5.43;;;;;;;-1.01;87.96;95748.81;4982949;28;20019;-74
2022/01/18 16:15:24;;;;;;;7.63;5.18;;;;;;;-0.95;87.82;95760.38;4988000;28;20089;-73
2022/01/18 16:17:50;;;;;;;10.50;5.80;;;;;;;-0.95;87.28;95762.91;4986213;28;20030;-73
2022/01/18 16:20:15;;;;;;;11.75;4.68;;;;;;;-0.95;86.82;95766.28;4968075;28;20109;-73
2022/01/18 16:22:41;;;;;;;8.30;4.35;;;;;;;-0.93;86.37;95772.09;4995146;28;20122;-73
2022/01/18 16:25:07;;;;;;;12.35;4.80;;;;;;;-0.97;86.84;95768.09;4970391;28;20066;-73
2022/01/18 16:27:32;;;;;;;13.70;5.38;;;;;;;-0.95;87.04;95761.19;4985435;28;20026;-73
2022/01/18 16:29:58;;;;;;;8.82;5.05;;;;;;;-1.07;87.32;95760.13;4967450;28;20480;-73
2022/01/18 16:32:23;;;;;;;5.47;4.70;;;;;;;-1.04;87.54;95766.78;4979555;28;20050;-73
2022/01/18 16:34:49;;;;;;;6.20;4.43;;;;;;;-1.03;86.78;95763.34;4985408;28;20035;-72
2022/01/18 16:37:16;;;;;;;8.00;4.45;;;;;;;-1.03;87.32;95762.50;4983937;28;20091;-73
2022/01/18 16:39:42;;;;;;;11.55;4.90;;;;;;;-1.13;86.96;95762.19;4987896;28;20058;-73
2022/01/18 16:42:08;;;;;;;11.00;4.50;;;;;;;-1.08;87.34;95771.19;4982732;28;20534;-73
2022/01/18 16:44:33;;;;;;;8.55;4.38;;;;;;;-1.03;86.63;95768.41;4966623;28;20039;-73
2022/01/18 16:46:59;;;;;;;7.50;4.05;;;;;;;-1.14;87.29;95768.16;4980942;28;20121;-74
2022/01/18 16:49:25;;;;;;;10.98;4.13;;;;;;;-1.13;87.37;95772.34;4970998;28;20124;-74
2022/01/18 16:51:51;;;;;;;7.20;3.97;;;;;;;-1.22;87.85;95778.69;5005026;28;20029;-74
2022/01/18 16:54:16;;;;;;;9.85;3.83;;;;;;;-1.18;88.14;95786.97;4994906;28;20038;-74
2022/01/18 16:56:43;;;;;;;5.35;3.92;;;;;;;-1.22;88.13;95796.47;4951327;28;20488;-74
2022/01/18 16:59:09;;;;;;;5.50;3.47;;;;;;;-1.31;89.04;95799.50;4960880;28;20030;-74
2022/01/18 17:01:35;;;;;;;7.45;3.88;;;;;;;-1.27;89.89;95787.47;4967641;28;20058;-74
2022/01/18 17:04:03;;;;;;;7.38;4.25;;;;;;;-1.41;90.52;95802.59;4994928;28;20034;-74
2022/01/18 17:06:29;;;;;;;8.25;3.65;;;;;;;-1.35;90.56;95802.28;4964486;28;20018;-74
2022/01/18 17:08:55;;;;;;;7.05;3.70;;;;;;;-1.40;90.52;95794.06;4995671;28;20045;-74
2022/01/18 17:11:20;;;;;;;10.60;5.47;;;;;;;-1.47;91.25;95795.28;4996800;28;20042;-75
2022/01/18 17:13:46;;;;;;;11.27;4.25;;;;;;;-1.42;90.49;95804.31;4981158;28;20030;-74
2022/01/18 17:16:12;;;;;;;9.07;4.50;;;;;;;-1.41;91.54;95812.75;4966633;28;20045;-74
2022/01/18 17:18:38;;;;;;;7.38;4.13;;;;;;;-1.56;91.49;95811.78;4984533;28;20029;-74